Time;durP1;ratioP1;P1;durP2;ratioP2;P2;SDS_P1;SDS_P2;PMS_P1;PMS_P2;Temp;Humidity;BMP_temperature;BMP_pressure;BME280_temperature;BME280_humidity;BME280_pressure;Samples;Min_cycle;Max_cycle;Signal;HPM_P1;HPM_P2
2022/05/01 00:02:05;;;;;;;17.07;15.57;;;13.50;86.10;;;;;;5089653;28;20188;-82
2022/05/01 00:04:32;;;;;;;15.80;14.37;;;13.30;89.40;;;;;;5087547;28;20178;-82
2022/05/01 00:06:57;;;;;;;16.10;14.60;;;13.20;89.60;;;;;;5050701;28;20664;-82
2022/05/01 00:09:23;;;;;;;14.90;13.50;;;13.30;88.60;;;;;;5085989;28;20194;-82
2022/05/01 00:11:49;;;;;;;14.77;13.27;;;13.40;87.50;;;;;;5083554;28;20183;-82
2022/05/01 00:14:14;;;;;;;15.73;14.33;;;13.30;87.30;;;;;;5086491;28;20186;-82
2022/05/01 00:16:40;;;;;;;15.77;14.17;;;13.40;86.50;;;;;;5083836;28;20222;-82
2022/05/01 00:19:08;;;;;;;16.40;14.93;;;13.40;86.50;;;;;;5088043;28;20205;-82
2022/05/01 00:21:34;;;;;;;16.70;15.30;;;13.30;88.40;;;;;;5088153;28;20275;-81
2022/05/01 00:24:00;;;;;;;16.93;15.23;;;13.20;90.00;;;;;;5083742;28;20194;-81
2022/05/01 00:26:27;;;;;;;16.60;14.90;;;13.20;90.10;;;;;;5086932;28;20205;-81
2022/05/01 00:28:53;;;;;;;19.83;17.90;;;13.20;89.30;;;;;;5084753;28;20181;-81
2022/05/01 00:31:19;;;;;;;17.43;15.93;;;13.20;89.20;;;;;;5091553;28;20602;-81
2022/05/01 00:36:29;;;;;;;17.10;15.47;;;13.20;89.00;;;;;;5091259;28;20255;-81
2022/05/01 00:39:03;;;;;;;16.70;15.10;;;13.30;88.80;;;;;;5086940;28;20178;-81
2022/05/01 00:41:33;;;;;;;16.27;14.87;;;13.30;88.80;;;;;;5087157;28;20191;-82
2022/05/01 00:44:01;;;;;;;16.57;15.13;;;13.30;88.40;;;;;;5092881;28;20185;-82
2022/05/01 00:46:27;;;;;;;17.40;15.80;;;13.30;88.30;;;;;;5093482;28;20205;-82
2022/05/01 00:48:53;;;;;;;16.50;15.10;;;13.10;89.50;;;;;;5088666;28;20553;-82
2022/05/01 00:51:20;;;;;;;18.47;16.83;;;12.80;92.20;;;;;;5093428;28;20718;-82
2022/05/01 00:53:48;;;;;;;14.97;13.57;;;12.80;92.70;;;;;;5071266;28;20197;-82
2022/05/01 00:56:14;;;;;;;15.90;14.40;;;12.80;92.10;;;;;;5088027;28;20225;-82
2022/05/01 00:58:40;;;;;;;15.57;14.07;;;13.00;90.60;;;;;;5089499;28;20284;-81
2022/05/01 01:01:07;;;;;;;15.77;14.27;;;13.10;89.60;;;;;;5086126;28;20530;-82
2022/05/01 01:03:33;;;;;;;16.33;14.90;;;13.20;89.30;;;;;;5090052;28;20276;-81
2022/05/01 01:05:59;;;;;;;15.00;13.70;;;13.00;89.40;;;;;;5091671;28;20239;-82
2022/05/01 01:08:25;;;;;;;15.40;14.00;;;13.10;90.20;;;;;;5090562;28;20202;-81
2022/05/01 01:10:50;;;;;;;15.27;13.83;;;13.00;90.20;;;;;;5086921;28;20668;-82
2022/05/01 01:13:24;;;;;;;15.10;13.60;;;13.00;90.00;;;;;;5090593;28;20194;-82
2022/05/01 01:15:49;;;;;;;14.53;13.03;;;13.10;90.90;;;;;;5086932;28;20852;-82
2022/05/01 01:18:15;;;;;;;14.37;12.97;;;13.00;90.20;;;;;;5089240;28;20187;-82
2022/05/01 01:20:42;;;;;;;15.17;13.80;;;13.00;89.00;;;;;;5091364;28;20336;-82
2022/05/01 01:23:08;;;;;;;14.70;13.43;;;13.00;88.20;;;;;;5091525;28;20195;-82
2022/05/01 01:25:34;;;;;;;14.50;13.13;;;13.00;87.90;;;;;;5087587;28;20196;-81
2022/05/01 01:28:02;;;;;;;14.20;12.80;;;12.80;90.90;;;;;;5096060;28;20363;-81
2022/05/01 01:33:15;;;;;;;13.83;12.53;;;12.70;91.10;;;;;;5087818;28;20234;-81
2022/05/01 01:35:41;;;;;;;14.80;13.40;;;12.70;90.40;;;;;;5088560;28;20490;-81
2022/05/01 01:38:07;;;;;;;12.80;11.50;;;12.70;89.30;;;;;;5069027;28;20691;-82
2022/05/01 01:40:47;;;;;;;14.50;13.10;;;12.80;88.60;;;;;;5092221;28;20198;-82
2022/05/01 01:43:13;;;;;;;13.33;11.90;;;12.90;87.40;;;;;;5086775;28;20188;-82
2022/05/01 01:45:39;;;;;;;13.50;12.20;;;12.90;86.50;;;;;;5076541;28;20743;-81
2022/05/01 01:48:16;;;;;;;13.57;12.43;;;12.90;88.80;;;;;;5100325;28;20260;-82
2022/05/01 01:50:43;;;;;;;13.83;12.53;;;12.90;89.00;;;;;;5098817;28;20187;-81
2022/05/01 01:53:10;;;;;;;14.17;12.77;;;12.80;90.60;;;;;;5101158;28;20293;-81
2022/05/01 01:55:37;;;;;;;13.20;12.00;;;12.70;91.90;;;;;;5088732;28;20269;-81
2022/05/01 01:58:03;;;;;;;13.57;12.37;;;12.50;92.90;;;;;;5087245;28;20184;-81
2022/05/01 02:00:29;;;;;;;13.30;12.10;;;12.50;92.20;;;;;;5085469;28;20215;-82
2022/05/01 02:03:05;;;;;;;12.37;11.27;;;12.40;91.30;;;;;;5086038;28;20206;-81
2022/05/01 02:05:32;;;;;;;12.37;11.27;;;12.40;91.70;;;;;;5086008;28;20201;-81
2022/05/01 02:07:58;;;;;;;13.07;11.83;;;12.40;91.40;;;;;;5085809;28;20714;-82
2022/05/01 02:10:25;;;;;;;12.60;11.53;;;12.50;90.90;;;;;;5089276;28;20206;-82
2022/05/01 02:12:51;;;;;;;13.53;11.53;;;12.50;91.20;;;;;;5089486;28;20198;-81
2022/05/01 02:15:18;;;;;;;12.27;11.27;;;12.50;91.70;;;;;;5089306;28;20705;-81
2022/05/01 02:17:45;;;;;;;12.13;11.07;;;12.50;92.40;;;;;;5086730;28;20208;-81
2022/05/01 02:20:11;;;;;;;13.33;12.23;;;12.50;92.60;;;;;;5088242;28;20179;-81
2022/05/01 02:22:40;;;;;;;12.73;11.53;;;12.50;91.90;;;;;;5071989;28;20271;-82
2022/05/01 02:25:07;;;;;;;12.87;11.57;;;12.60;91.00;;;;;;5092632;28;20212;-82
2022/05/01 02:27:39;;;;;;;15.87;14.37;;;12.60;90.90;;;;;;5094171;28;20239;-82
2022/05/01 02:30:07;;;;;;;13.87;12.57;;;12.50;91.40;;;;;;5067590;28;20203;-81
2022/05/01 02:32:36;;;;;;;13.03;11.73;;;12.20;93.20;;;;;;5094022;28;20287;-81
2022/05/01 02:35:02;;;;;;;13.73;12.43;;;12.30;92.90;;;;;;5086459;28;20184;-81
2022/05/01 02:37:28;;;;;;;15.20;13.63;;;12.50;92.00;;;;;;5072603;28;20223;-81
2022/05/01 02:39:54;;;;;;;15.47;13.77;;;12.60;90.80;;;;;;5085600;28;20648;-82
2022/05/01 02:42:19;;;;;;;13.53;12.43;;;12.50;90.60;;;;;;5090719;28;20195;-81
2022/05/01 02:44:45;;;;;;;13.67;12.27;;;12.50;93.70;;;;;;5084573;28;20186;-81
2022/05/01 02:47:11;;;;;;;12.27;11.17;;;12.50;93.00;;;;;;5078969;28;20222;-81
2022/05/01 02:49:37;;;;;;;12.70;11.60;;;12.50;92.60;;;;;;5087016;28;20452;-82
2022/05/01 02:52:03;;;;;;;13.50;12.30;;;12.60;92.40;;;;;;5087980;28;20278;-81
2022/05/01 02:54:29;;;;;;;12.97;11.70;;;12.70;90.90;;;;;;5087133;28;20200;-81
2022/05/01 02:56:54;;;;;;;11.50;10.40;;;12.40;93.20;;;;;;5069837;28;20642;-81
2022/05/01 02:59:20;;;;;;;14.40;13.10;;;12.40;93.10;;;;;;5088160;28;20676;-82
2022/05/01 03:01:46;;;;;;;11.97;10.97;;;12.40;93.60;;;;;;5086449;28;20274;-81
2022/05/01 03:04:12;;;;;;;12.20;11.10;;;12.50;93.00;;;;;;5095012;28;20210;-82
2022/05/01 03:06:37;;;;;;;13.63;11.60;;;12.60;92.30;;;;;;5096532;28;20260;-81
2022/05/01 03:09:04;;;;;;;12.67;11.47;;;12.60;92.10;;;;;;5096826;28;20293;-81
2022/05/01 03:11:29;;;;;;;12.70;11.60;;;12.60;92.20;;;;;;5097449;28;20225;-81
2022/05/01 03:13:55;;;;;;;12.50;11.50;;;12.60;91.80;;;;;;5094448;28;20187;-82
2022/05/01 03:16:21;;;;;;;12.10;11.10;;;12.70;91.80;;;;;;5103374;28;20208;-81
2022/05/01 03:24:18;;;;;;;13.97;12.57;;;12.60;94.30;;;;;;5095663;28;20190;-81
2022/05/01 03:26:43;;;;;;;13.47;12.27;;;12.50;93.90;;;;;;5088091;28;20244;-81
2022/05/01 03:29:13;;;;;;;14.17;12.73;;;12.30;95.90;;;;;;5083843;28;20416;-81
2022/05/01 03:31:39;;;;;;;13.87;12.53;;;12.30;96.50;;;;;;5088309;28;20196;-81
2022/05/01 03:34:04;;;;;;;13.60;12.40;;;12.10;97.10;;;;;;5094283;28;20202;-81
2022/05/01 03:36:30;;;;;;;13.30;12.10;;;12.10;98.00;;;;;;5087855;28;20282;-81
2022/05/01 03:38:56;;;;;;;13.97;12.67;;;12.00;98.80;;;;;;5086352;28;20292;-81
2022/05/01 03:41:22;;;;;;;13.50;12.27;;;11.90;99.90;;;;;;5086135;28;20785;-81
2022/05/01 03:43:48;;;;;;;11.87;10.80;;;11.80;99.90;;;;;;5088841;28;20190;-81
2022/05/01 03:46:14;;;;;;;12.10;11.10;;;11.90;99.60;;;;;;5065732;28;20228;-81
2022/05/01 03:48:39;;;;;;;11.70;10.70;;;12.00;97.40;;;;;;5071662;28;20213;-80
2022/05/01 03:51:05;;;;;;;12.00;10.90;;;12.00;96.10;;;;;;5067764;28;20210;-81
2022/05/01 03:53:31;;;;;;;13.70;12.50;;;12.20;95.20;;;;;;5085118;28;20209;-81
2022/05/01 03:55:57;;;;;;;12.63;11.53;;;12.20;94.70;;;;;;5085234;28;20712;-81
2022/05/01 03:58:22;;;;;;;11.77;10.77;;;12.20;94.90;;;;;;5083151;28;20190;-81
2022/05/01 04:00:49;;;;;;;11.80;10.57;;;12.20;94.30;;;;;;5085977;28;20261;-81
2022/05/01 04:03:15;;;;;;;13.37;12.13;;;12.30;93.80;;;;;;5086438;28;20187;-81
2022/05/01 04:05:41;;;;;;;13.80;12.50;;;12.30;94.20;;;;;;5088088;28;20193;-81
2022/05/01 04:08:08;;;;;;;11.50;10.37;;;12.30;94.30;;;;;;5081302;28;20240;-81
2022/05/01 04:10:40;;;;;;;11.83;10.73;;;12.40;93.60;;;;;;5066334;28;20209;-81
2022/05/01 04:13:06;;;;;;;12.50;11.27;;;12.50;93.00;;;;;;5083489;28;20278;-81
2022/05/01 04:15:32;;;;;;;12.43;11.43;;;12.50;91.90;;;;;;5083221;28;20635;-81
2022/05/01 04:17:58;;;;;;;12.83;11.43;;;12.60;91.30;;;;;;5087625;28;20198;-81
2022/05/01 04:20:25;;;;;;;12.73;11.53;;;12.70;92.20;;;;;;5095227;28;20812;-80
2022/05/01 04:22:51;;;;;;;11.43;10.40;;;12.70;91.20;;;;;;5092687;28;20196;-81
2022/05/01 04:25:17;;;;;;;12.50;11.17;;;12.70;92.30;;;;;;5083813;28;20178;-81
2022/05/01 04:27:48;;;;;;;11.77;10.67;;;12.60;93.10;;;;;;5094446;28;20401;-81
2022/05/01 04:30:15;;;;;;;12.03;10.90;;;12.70;93.20;;;;;;5092774;28;20559;-81
2022/05/01 04:32:56;;;;;;;12.87;11.77;;;12.60;93.00;;;;;;5072124;28;20196;-81
2022/05/01 04:35:28;;;;;;;12.20;10.97;;;12.60;93.50;;;;;;5087683;28;20225;-81
2022/05/01 04:38:00;;;;;;;12.30;11.10;;;12.50;94.30;;;;;;5095924;28;20196;-81
2022/05/01 04:40:30;;;;;;;11.47;10.47;;;12.50;95.00;;;;;;5092346;28;20188;-81
2022/05/01 04:43:08;;;;;;;12.20;11.10;;;12.50;94.00;;;;;;5088806;28;20176;-81
2022/05/01 04:45:35;;;;;;;12.73;11.53;;;12.60;92.90;;;;;;5088302;28;20387;-81
2022/05/01 04:48:01;;;;;;;12.47;11.33;;;12.60;92.30;;;;;;5072766;28;20266;-81
2022/05/01 04:50:27;;;;;;;12.07;10.93;;;12.40;93.00;;;;;;5071014;28;20193;-81
2022/05/01 04:52:54;;;;;;;14.33;12.83;;;12.50;93.00;;;;;;5092404;28;20945;-81
2022/05/01 04:55:20;;;;;;;13.13;11.80;;;12.30;94.20;;;;;;5091925;28;20653;-81
2022/05/01 04:57:46;;;;;;;11.77;10.67;;;12.20;94.90;;;;;;5088912;28;20299;-81
2022/05/01 05:00:13;;;;;;;12.00;10.80;;;12.00;95.60;;;;;;5086972;28;20213;-81
2022/05/01 05:02:42;;;;;;;11.23;10.33;;;12.20;94.40;;;;;;5089136;28;20183;-82
2022/05/01 05:05:10;;;;;;;13.20;11.80;;;12.30;93.40;;;;;;5085947;28;20199;-81
2022/05/01 05:07:39;;;;;;;12.53;11.30;;;12.20;94.10;;;;;;5091387;28;20225;-81
2022/05/01 05:10:07;;;;;;;12.63;11.47;;;12.30;93.50;;;;;;5076799;28;20270;-81
2022/05/01 05:12:34;;;;;;;11.37;10.30;;;12.40;92.90;;;;;;5087472;28;20202;-81
2022/05/01 05:15:00;;;;;;;12.27;11.17;;;12.50;92.50;;;;;;5082928;28;20195;-81
2022/05/01 05:17:29;;;;;;;11.87;10.77;;;12.50;91.40;;;;;;5095510;28;20203;-81
2022/05/01 05:19:55;;;;;;;12.90;11.73;;;12.40;92.00;;;;;;5090083;28;20211;-82
2022/05/01 05:22:21;;;;;;;10.87;9.87;;;12.40;91.10;;;;;;5089845;28;20180;-82
2022/05/01 05:24:47;;;;;;;12.13;11.13;;;12.50;91.60;;;;;;5090865;28;20465;-82
2022/05/01 05:27:13;;;;;;;11.53;10.47;;;12.50;91.10;;;;;;5091501;28;20204;-82
2022/05/01 05:29:39;;;;;;;12.40;11.20;;;12.60;90.00;;;;;;5089554;28;20191;-81
2022/05/01 05:32:06;;;;;;;13.40;12.07;;;12.70;90.20;;;;;;5098545;28;20189;-82
2022/05/01 05:34:32;;;;;;;13.27;12.07;;;12.50;89.60;;;;;;5091590;28;20256;-82
2022/05/01 05:36:58;;;;;;;13.57;12.17;;;12.30;90.80;;;;;;5088979;28;20211;-81
2022/05/01 05:39:24;;;;;;;11.73;10.77;;;12.10;90.30;;;;;;5098642;28;20202;-81
2022/05/01 05:41:50;;;;;;;13.83;12.53;;;12.20;89.20;;;;;;5102921;28;20466;-81
2022/05/01 05:44:15;;;;;;;11.63;10.63;;;12.20;90.30;;;;;;5109823;28;20192;-82
2022/05/01 05:46:41;;;;;;;12.17;11.07;;;12.30;90.70;;;;;;5091152;28;20271;-81
2022/05/01 05:49:07;;;;;;;12.63;11.40;;;12.30;89.30;;;;;;5089078;28;20195;-82
2022/05/01 05:51:32;;;;;;;12.00;10.90;;;12.50;88.70;;;;;;5086712;28;20272;-81
2022/05/01 05:53:58;;;;;;;12.60;11.50;;;12.70;87.40;;;;;;5087401;28;20249;-81
2022/05/01 05:56:24;;;;;;;12.57;11.30;;;12.70;87.90;;;;;;5087633;28;20236;-81
2022/05/01 05:58:50;;;;;;;11.37;10.53;;;12.70;87.70;;;;;;5086154;28;20267;-81
2022/05/01 06:01:16;;;;;;;12.50;11.30;;;12.90;85.50;;;;;;5094172;28;20661;-81
2022/05/01 06:03:42;;;;;;;12.73;11.13;;;12.90;85.60;;;;;;5093101;28;20521;-81
2022/05/01 06:06:07;;;;;;;13.43;11.60;;;13.00;84.70;;;;;;5084553;28;20221;-81
2022/05/01 06:08:35;;;;;;;61.87;51.53;;;13.20;82.80;;;;;;5089712;28;20188;-81
2022/05/01 06:11:01;;;;;;;161.20;129.93;;;13.10;82.80;;;;;;5092726;28;20194;-81
2022/05/01 06:13:27;;;;;;;28.20;25.27;;;13.00;82.50;;;;;;5095483;28;20187;-81
2022/05/01 06:15:53;;;;;;;79.50;68.30;;;13.20;81.40;;;;;;5073989;28;20216;-83
2022/05/01 06:18:19;;;;;;;14.07;12.93;;;13.20;78.30;;;;;;5093422;28;20193;-82
2022/05/01 06:20:44;;;;;;;15.23;13.67;;;13.10;77.90;;;;;;5085297;28;20212;-82
2022/05/01 06:23:10;;;;;;;13.33;11.97;;;13.10;78.50;;;;;;5078188;28;20202;-82
2022/05/01 06:25:38;;;;;;;13.33;12.20;;;13.20;76.00;;;;;;5091016;28;20217;-82
2022/05/01 06:28:05;;;;;;;13.80;11.53;;;13.20;75.10;;;;;;5095859;28;20225;-82
2022/05/01 06:30:32;;;;;;;12.97;10.87;;;13.10;74.70;;;;;;5090776;28;20198;-82
2022/05/01 06:32:57;;;;;;;13.43;12.17;;;13.10;74.90;;;;;;5089571;28;20195;-81
2022/05/01 06:35:24;;;;;;;13.97;11.83;;;13.20;76.00;;;;;;5092240;28;20297;-81
2022/05/01 06:37:50;;;;;;;13.93;11.97;;;13.20;74.60;;;;;;5089845;28;20192;-82
2022/05/01 06:40:16;;;;;;;11.80;10.60;;;13.30;74.50;;;;;;5085773;28;20253;-82
2022/05/01 06:42:42;;;;;;;16.93;15.50;;;13.50;75.10;;;;;;5090996;28;20191;-82
2022/05/01 06:45:08;;;;;;;13.13;12.10;;;13.60;75.30;;;;;;5088274;28;20215;-82
2022/05/01 06:47:34;;;;;;;15.13;12.37;;;13.60;74.30;;;;;;5089939;28;20231;-82
2022/05/01 06:49:59;;;;;;;12.30;11.20;;;13.60;73.00;;;;;;5083060;28;20189;-82
2022/05/01 06:52:25;;;;;;;12.47;11.23;;;13.50;73.10;;;;;;5080169;28;20329;-82
2022/05/01 06:54:55;;;;;;;14.37;12.43;;;13.60;73.60;;;;;;5088083;28;20219;-82
2022/05/01 06:57:21;;;;;;;13.43;12.07;;;13.70;73.50;;;;;;5082400;28;20297;-81
2022/05/01 06:59:46;;;;;;;14.00;12.73;;;13.70;73.80;;;;;;5082089;28;20188;-81
2022/05/01 07:02:14;;;;;;;13.93;12.57;;;13.50;72.80;;;;;;5092782;28;20192;-82
2022/05/01 07:04:39;;;;;;;12.33;11.30;;;13.50;72.80;;;;;;5089802;28;20218;-82
2022/05/01 07:07:05;;;;;;;19.03;13.87;;;13.60;72.70;;;;;;5093239;28;20681;-82
2022/05/01 07:09:30;;;;;;;15.13;13.67;;;13.40;74.50;;;;;;5100606;28;20190;-82
2022/05/01 07:11:57;;;;;;;14.47;13.07;;;13.00;75.60;;;;;;5083715;28;20186;-82
2022/05/01 07:14:23;;;;;;;14.23;12.93;;;13.20;75.70;;;;;;5087550;28;20274;-82
2022/05/01 07:16:49;;;;;;;14.63;13.37;;;13.30;74.60;;;;;;5065196;28;20770;-81
2022/05/01 07:19:15;;;;;;;13.73;12.47;;;13.30;73.90;;;;;;5094474;28;20199;-82
2022/05/01 07:21:41;;;;;;;14.37;12.93;;;13.30;75.00;;;;;;5066172;28;20555;-81
2022/05/01 07:24:07;;;;;;;16.33;14.87;;;13.40;75.10;;;;;;5091237;28;20179;-82
2022/05/01 07:26:33;;;;;;;12.73;11.53;;;13.30;75.70;;;;;;5087531;28;20215;-82
2022/05/01 07:29:05;;;;;;;14.17;12.83;;;13.40;75.60;;;;;;5079970;28;20187;-82
2022/05/01 07:31:30;;;;;;;14.03;12.50;;;13.50;75.30;;;;;;5063165;28;20193;-82
2022/05/01 07:34:00;;;;;;;13.50;12.40;;;13.60;75.40;;;;;;5079095;28;20692;-82
2022/05/01 07:36:26;;;;;;;14.33;12.17;;;13.70;73.60;;;;;;5086010;28;20660;-82
2022/05/01 07:38:53;;;;;;;12.63;11.37;;;13.50;74.30;;;;;;5088666;28;20189;-82
2022/05/01 07:41:19;;;;;;;14.47;12.90;;;13.70;73.80;;;;;;5077551;28;20186;-82
2022/05/01 07:43:48;;;;;;;14.30;13.00;;;13.70;73.80;;;;;;5086518;28;20259;-82
2022/05/01 07:46:13;;;;;;;14.40;13.03;;;13.80;73.20;;;;;;5090133;28;20217;-81
2022/05/01 07:48:39;;;;;;;14.20;12.87;;;13.90;72.80;;;;;;5090233;28;20174;-81
2022/05/01 07:51:05;;;;;;;14.20;12.90;;;14.00;72.40;;;;;;5091961;28;20611;-82
2022/05/01 07:53:33;;;;;;;14.47;13.03;;;13.80;73.10;;;;;;5090643;28;20183;-81
2022/05/01 07:55:59;;;;;;;15.03;13.67;;;13.60;73.40;;;;;;5077551;28;20291;-82
2022/05/01 07:58:24;;;;;;;14.67;13.23;;;13.80;74.70;;;;;;5085948;28;20260;-81
2022/05/01 08:00:51;;;;;;;15.63;14.07;;;13.80;76.50;;;;;;5087793;28;20582;-81
2022/05/01 08:06:01;;;;;;;15.03;13.60;;;14.00;72.30;;;;;;5091696;28;20231;-82
2022/05/01 08:08:33;;;;;;;16.03;14.73;;;14.20;71.70;;;;;;5070348;28;20194;-82
2022/05/01 08:11:01;;;;;;;21.53;15.40;;;14.20;73.20;;;;;;5086307;28;20187;-81
2022/05/01 08:13:27;;;;;;;15.80;14.20;;;14.20;71.90;;;;;;5088034;28;20178;-81
2022/05/01 08:15:52;;;;;;;16.63;14.93;;;14.20;71.60;;;;;;5082164;28;20550;-82
2022/05/01 08:21:07;;;;;;;17.53;15.93;;;14.50;70.40;;;;;;5085048;28;20785;-81
2022/05/01 08:23:33;;;;;;;16.47;14.90;;;14.60;70.60;;;;;;5087126;28;20186;-81
2022/05/01 08:26:06;;;;;;;16.40;14.70;;;14.40;70.50;;;;;;5085238;28;20247;-79
2022/05/01 08:28:37;;;;;;;17.97;16.27;;;14.50;70.10;;;;;;5057108;28;20187;-82
2022/05/01 08:31:05;;;;;;;16.60;15.20;;;14.70;69.60;;;;;;5082010;28;20193;-82
2022/05/01 08:33:31;;;;;;;17.73;16.23;;;14.90;68.80;;;;;;5083045;28;20310;-82
2022/05/01 08:35:58;;;;;;;17.03;15.33;;;15.10;67.50;;;;;;5060801;28;20689;-82
2022/05/01 08:38:24;;;;;;;17.07;15.47;;;15.10;67.20;;;;;;5084954;28;20189;-81
2022/05/01 08:40:51;;;;;;;18.90;16.90;;;15.10;68.60;;;;;;5084453;28;20185;-82
2022/05/01 08:43:22;;;;;;;17.87;16.17;;;15.20;69.00;;;;;;5071204;28;20263;-82
2022/05/01 08:45:54;;;;;;;17.00;15.47;;;15.20;69.10;;;;;;5077351;28;20682;-82
2022/05/01 08:48:25;;;;;;;18.27;16.47;;;15.30;67.90;;;;;;5079353;28;20274;-81
2022/05/01 08:50:54;;;;;;;17.43;15.83;;;15.10;68.30;;;;;;5090479;28;20424;-81
2022/05/01 08:53:22;;;;;;;17.80;16.23;;;15.00;70.10;;;;;;5090692;28;20187;-81
2022/05/01 08:55:50;;;;;;;18.83;17.23;;;14.90;71.30;;;;;;5061194;28;20227;-81
2022/05/01 08:58:16;;;;;;;17.53;16.13;;;15.00;69.80;;;;;;5082108;28;20183;-81
2022/05/01 09:00:43;;;;;;;18.83;17.07;;;15.00;71.10;;;;;;5099433;28;20240;-81
2022/05/01 09:03:09;;;;;;;18.60;17.10;;;15.10;70.20;;;;;;5100512;28;20656;-82
2022/05/01 09:05:35;;;;;;;18.00;16.50;;;15.00;69.80;;;;;;5080374;28;20178;-82
2022/05/01 09:08:00;;;;;;;20.20;18.50;;;15.20;69.90;;;;;;5074084;28;20199;-82
2022/05/01 09:10:27;;;;;;;21.00;19.23;;;15.20;69.50;;;;;;5093380;28;20205;-82
2022/05/01 09:12:53;;;;;;;18.13;16.73;;;15.40;68.60;;;;;;5094844;28;20194;-82
2022/05/01 09:15:35;;;;;;;18.20;16.80;;;15.60;68.40;;;;;;5088467;28;20194;-82
2022/05/01 09:18:05;;;;;;;17.63;16.07;;;15.70;67.90;;;;;;5090949;28;20206;-83
2022/05/01 09:20:38;;;;;;;20.20;18.40;;;15.90;66.80;;;;;;5087762;28;20247;-82
2022/05/01 09:23:05;;;;;;;19.27;17.60;;;16.10;67.00;;;;;;5094659;28;20645;-82
2022/05/01 09:25:32;;;;;;;19.27;17.43;;;16.40;64.50;;;;;;5097377;28;20762;-82
2022/05/01 09:28:01;;;;;;;18.93;17.13;;;16.40;65.00;;;;;;5099098;28;20293;-82
2022/05/01 09:30:34;;;;;;;18.33;16.70;;;16.20;67.70;;;;;;5096901;28;20249;-82
2022/05/01 09:33:01;;;;;;;17.80;16.23;;;16.20;65.70;;;;;;5089614;28;20176;-81
2022/05/01 09:35:32;;;;;;;19.07;17.47;;;16.00;66.90;;;;;;5072809;28;20186;-82
2022/05/01 09:38:13;;;;;;;19.03;17.47;;;16.10;66.10;;;;;;5068948;28;20206;-83
2022/05/01 09:40:39;;;;;;;18.83;17.27;;;16.20;64.50;;;;;;5090508;28;20189;-82
2022/05/01 09:43:05;;;;;;;20.77;18.87;;;16.10;66.00;;;;;;5092632;28;20230;-82
2022/05/01 09:45:32;;;;;;;19.77;18.07;;;15.70;67.80;;;;;;5099007;28;20187;-83
2022/05/01 09:47:58;;;;;;;19.77;18.00;;;15.80;67.50;;;;;;5092865;28;20206;-82
2022/05/01 09:50:42;;;;;;;18.80;17.20;;;16.00;65.40;;;;;;5087242;28;20749;-83
2022/05/01 09:53:13;;;;;;;17.73;16.20;;;16.20;64.90;;;;;;5087784;28;20183;-83
2022/05/01 09:55:42;;;;;;;18.10;16.47;;;16.30;64.60;;;;;;5077348;28;20339;-83
2022/05/01 09:58:10;;;;;;;19.23;17.53;;;16.20;62.70;;;;;;5098516;28;20183;-83
2022/05/01 10:00:39;;;;;;;18.23;16.53;;;16.10;63.10;;;;;;5087300;28;20523;-83
2022/05/01 10:03:47;;;;;;;20.97;16.63;;;16.00;63.70;;;;;;5072614;28;20186;-84
2022/05/01 10:06:14;;;;;;;17.77;16.07;;;15.90;64.40;;;;;;5000111;28;20226;-83
2022/05/01 10:08:42;;;;;;;19.57;17.80;;;15.70;64.80;;;;;;5002014;28;20195;-83
2022/05/01 10:11:08;;;;;;;17.77;16.37;;;15.90;65.20;;;;;;5045313;28;20199;-82
2022/05/01 10:13:35;;;;;;;16.77;15.33;;;15.80;64.60;;;;;;5085717;28;20258;-83
2022/05/01 10:16:07;;;;;;;17.20;15.60;;;16.00;64.00;;;;;;5093265;28;20218;-83
2022/05/01 10:18:33;;;;;;;19.50;17.47;;;16.10;62.90;;;;;;5091746;28;20194;-83
2022/05/01 10:20:59;;;;;;;19.70;16.70;;;16.30;62.60;;;;;;5088290;28;20172;-83
2022/05/01 10:23:26;;;;;;;17.23;15.73;;;16.40;63.00;;;;;;5087485;28;20247;-84
2022/05/01 10:25:55;;;;;;;16.40;15.00;;;16.60;61.10;;;;;;5089674;28;20191;-83
2022/05/01 10:28:41;;;;;;;18.20;16.60;;;16.80;61.50;;;;;;5071252;28;20225;-83
2022/05/01 10:34:44;;;;;;;16.53;15.10;;;16.90;60.30;;;;;;5091119;28;20240;-84
2022/05/01 10:37:43;;;;;;;18.30;16.77;;;17.20;59.80;;;;;;5087362;28;20219;-83
2022/05/01 10:40:08;;;;;;;17.40;15.83;;;17.40;60.00;;;;;;5094534;28;20585;-83
2022/05/01 10:42:45;;;;;;;17.33;15.90;;;17.20;60.50;;;;;;5094031;28;20196;-83
2022/05/01 10:45:23;;;;;;;16.80;15.40;;;17.30;60.10;;;;;;5091345;28;20672;-84
2022/05/01 10:47:58;;;;;;;17.07;15.53;;;17.40;60.30;;;;;;5093329;28;20196;-84
2022/05/01 10:50:26;;;;;;;17.23;15.67;;;17.40;60.50;;;;;;5089630;28;20214;-83
2022/05/01 10:53:05;;;;;;;17.10;15.70;;;17.50;57.60;;;;;;5060442;28;20197;-84
2022/05/01 10:55:52;;;;;;;18.20;16.70;;;17.80;58.00;;;;;;5093453;28;20772;-84
2022/05/01 10:58:26;;;;;;;17.03;15.53;;;17.90;57.40;;;;;;5089196;28;20618;-84
2022/05/01 11:00:56;;;;;;;18.10;16.50;;;17.90;57.70;;;;;;5084103;28;20595;-83
2022/05/01 11:03:24;;;;;;;18.07;16.33;;;17.70;56.90;;;;;;5086719;28;20191;-83
2022/05/01 11:05:54;;;;;;;16.90;15.53;;;17.70;58.40;;;;;;5085544;28;20182;-83
2022/05/01 11:08:23;;;;;;;17.50;15.90;;;17.80;57.00;;;;;;5090042;28;20185;-84
2022/05/01 11:10:53;;;;;;;16.63;15.17;;;17.50;56.70;;;;;;5086591;28;20183;-83
2022/05/01 11:13:19;;;;;;;16.02;14.73;;;17.30;58.40;;;;;;5084806;28;20309;-84
2022/05/01 11:15:49;;;;;;;16.97;15.30;;;17.30;60.00;;;;;;5092313;28;20608;-83
2022/05/01 11:18:16;;;;;;;17.50;15.90;;;17.30;57.90;;;;;;5089619;28;20664;-83
2022/05/01 11:20:43;;;;;;;16.00;14.73;;;17.40;57.90;;;;;;5090328;28;20177;-84
2022/05/01 11:23:30;;;;;;;15.67;14.33;;;17.40;57.60;;;;;;5081637;28;20176;-83
2022/05/01 11:26:10;;;;;;;18.37;16.67;;;17.50;58.30;;;;;;5089858;28;20209;-84
2022/05/01 11:28:44;;;;;;;18.00;16.37;;;17.20;58.00;;;;;;5093687;28;20569;-83
2022/05/01 11:31:48;;;;;;;17.40;15.87;;;17.20;58.30;;;;;;5070548;28;20188;-83
2022/05/01 11:34:17;;;;;;;16.07;14.67;;;17.00;58.40;;;;;;5016477;28;20193;-84
2022/05/01 11:36:53;;;;;;;17.30;15.70;;;17.00;59.60;;;;;;5076147;28;20229;-84
2022/05/01 11:39:19;;;;;;;24.50;22.07;;;16.70;62.50;;;;;;5068293;28;20596;-84
2022/05/01 11:41:51;;;;;;;19.00;17.40;;;16.80;60.60;;;;;;5076962;28;20614;-84
2022/05/01 11:44:24;;;;;;;17.90;16.07;;;17.00;60.10;;;;;;5079066;28;20541;-84
2022/05/01 11:46:51;;;;;;;17.20;15.80;;;16.90;60.10;;;;;;5085423;28;20211;-85
2022/05/01 11:49:18;;;;;;;16.80;15.20;;;16.90;61.20;;;;;;5096831;28;20283;-84
2022/05/01 11:51:45;;;;;;;16.70;15.03;;;17.00;61.80;;;;;;5076614;28;20217;-83
2022/05/01 11:54:10;;;;;;;17.40;15.97;;;17.30;61.50;;;;;;5086275;28;20777;-83
2022/05/01 12:02:26;;;;;;;15.20;13.83;;;17.60;58.60;;;;;;5087350;28;20228;-84
2022/05/01 12:04:58;;;;;;;20.00;18.30;;;17.80;57.50;;;;;;5091384;28;20169;-82
2022/05/01 12:07:24;;;;;;;16.80;15.32;;;18.00;57.20;;;;;;5085986;28;20208;-84
2022/05/01 12:09:53;;;;;;;20.85;19.13;;;18.20;57.00;;;;;;5092050;28;20247;-83
2022/05/01 12:12:22;;;;;;;18.08;16.38;;;18.30;56.80;;;;;;5090426;28;20200;-84
2022/05/01 12:14:48;;;;;;;25.95;24.10;;;18.50;56.00;;;;;;5089025;28;20638;-83
2022/05/01 12:17:21;;;;;;;16.98;15.27;;;18.50;55.50;;;;;;5085894;28;20230;-84
2022/05/01 12:19:48;;;;;;;15.93;14.43;;;18.30;55.30;;;;;;5085725;28;20727;-84
2022/05/01 12:22:21;;;;;;;15.80;14.33;;;18.00;55.90;;;;;;5091073;28;20191;-83
2022/05/01 12:24:48;;;;;;;18.67;15.27;;;18.20;55.70;;;;;;5089473;28;20199;-83
2022/05/01 12:27:15;;;;;;;16.08;14.63;;;18.30;55.70;;;;;;5073647;28;20213;-84
2022/05/01 12:29:49;;;;;;;16.70;15.20;;;18.20;55.20;;;;;;5086538;28;20248;-84
2022/05/01 12:32:16;;;;;;;15.87;14.33;;;18.20;56.10;;;;;;5093113;28;20394;-84
2022/05/01 12:34:44;;;;;;;15.37;14.07;;;18.10;56.70;;;;;;5092126;28;20205;-84
2022/05/01 12:37:15;;;;;;;14.60;13.10;;;18.00;56.10;;;;;;5089931;28;20621;-83
2022/05/01 12:39:43;;;;;;;14.93;13.67;;;18.00;56.70;;;;;;5084049;28;20182;-82
2022/05/01 12:45:18;;;;;;;15.18;13.88;;;18.20;55.50;;;;;;5102753;28;20202;-83
2022/05/01 12:47:52;;;;;;;14.73;13.55;;;18.80;52.70;;;;;;5106587;28;20209;-83
2022/05/01 12:50:18;;;;;;;14.50;12.98;;;19.00;53.00;;;;;;5083938;28;20186;-83
2022/05/01 12:52:45;;;;;;;15.45;14.05;;;18.80;53.20;;;;;;5096854;28;20206;-83
2022/05/01 12:55:18;;;;;;;13.40;12.10;;;18.20;54.90;;;;;;5098242;28;20872;-82
2022/05/01 12:57:56;;;;;;;14.07;12.97;;;17.90;56.50;;;;;;5099581;28;20204;-83
2022/05/01 13:00:47;;;;;;;13.10;12.00;;;17.70;57.80;;;;;;5086300;28;20903;-83